Time;durP1;ratioP1;P1;durP2;ratioP2;P2;SDS_P1;SDS_P2;PMS_P1;PMS_P2;Temp;Humidity;BMP_temperature;BMP_pressure;BME280_temperature;BME280_humidity;BME280_pressure;Samples;Min_cycle;Max_cycle;Signal;HPM_P1;HPM_P2
2023/09/04 00:02:02;;;;;;;0.50;0.50;;;;;;;12.09;100.00;99651.97;6248098;22;20119;-81
2023/09/04 00:04:32;;;;;;;0.50;0.50;;;;;;;12.07;100.00;99656.78;6246676;22;20035;-80
2023/09/04 00:06:59;;;;;;;0.50;0.50;;;;;;;12.04;100.00;99654.56;6273923;22;20023;-81
2023/09/04 00:09:26;;;;;;;0.40;0.40;;;;;;;12.03;100.00;99644.00;6246784;22;20051;-81
2023/09/04 00:11:54;;;;;;;0.50;0.50;;;;;;;12.01;100.00;99648.81;6273801;22;20019;-82
2023/09/04 00:14:21;;;;;;;0.40;0.40;;;;;;;11.99;100.00;99635.53;6274544;22;20046;-81
2023/09/04 00:16:48;;;;;;;0.50;0.50;;;;;;;12.01;100.00;99638.81;6273880;22;20024;-81
2023/09/04 00:19:17;;;;;;;0.50;0.50;;;;;;;12.01;100.00;99644.22;6274742;22;20020;-79
2023/09/04 00:21:53;;;;;;;0.50;0.50;;;;;;;12.02;100.00;99645.88;6249101;22;20078;-81
2023/09/04 00:24:22;;;;;;;0.50;0.50;;;;;;;12.03;100.00;99650.22;6273585;22;20028;-81
2023/09/04 00:26:49;;;;;;;0.50;0.50;;;;;;;12.04;100.00;99649.16;6274011;22;20043;-82
2023/09/04 00:29:17;;;;;;;0.40;0.40;;;;;;;11.95;100.00;99647.91;6247354;22;20111;-80
2023/09/04 00:31:44;;;;;;;0.50;0.50;;;;;;;11.95;100.00;99656.00;6273698;22;20070;-81
2023/09/04 00:34:14;;;;;;;0.50;0.50;;;;;;;11.88;100.00;99650.72;6274243;22;20074;-81
2023/09/04 00:36:42;;;;;;;0.50;0.50;;;;;;;11.84;100.00;99651.41;6247370;22;20054;-81
2023/09/04 00:39:09;;;;;;;0.50;0.50;;;;;;;11.71;100.00;99626.25;6246862;22;20019;-81
2023/09/04 00:41:39;;;;;;;0.47;0.47;;;;;;;11.87;100.00;99643.66;6274688;22;20028;-81
2023/09/04 00:44:09;;;;;;;0.50;0.50;;;;;;;11.84;100.00;99640.56;6274513;22;20031;-81
2023/09/04 00:46:36;;;;;;;0.50;0.50;;;;;;;11.77;100.00;99638.00;6274514;22;20111;-80
2023/09/04 00:49:04;;;;;;;0.50;0.50;;;;;;;11.74;100.00;99645.75;6247827;22;20023;-79
2023/09/04 00:51:31;;;;;;;0.50;0.50;;;;;;;11.66;100.00;99653.16;6274813;22;20233;-80
2023/09/04 00:54:00;;;;;;;0.40;0.40;;;;;;;11.56;100.00;99652.94;6248220;22;20028;-81
2023/09/04 00:56:29;;;;;;;0.50;0.50;;;;;;;11.56;100.00;99647.53;6223386;22;20022;-81
2023/09/04 00:58:56;;;;;;;0.40;0.40;;;;;;;11.54;100.00;99648.81;6223302;22;20081;-80
2023/09/04 01:01:24;;;;;;;0.50;0.50;;;;;;;11.48;100.00;99650.59;6221895;22;20024;-80
2023/09/04 01:03:51;;;;;;;0.50;0.50;;;;;;;11.42;100.00;99649.66;6247749;22;20187;-82
2023/09/04 01:06:20;;;;;;;0.47;0.47;;;;;;;11.40;100.00;99650.94;6273873;22;20389;-81
2023/09/04 01:08:47;;;;;;;0.50;0.50;;;;;;;11.42;100.00;99648.81;6248507;22;20028;-81
2023/09/04 01:11:38;;;;;;;0.50;0.50;;;;;;;11.41;100.00;99644.47;6274344;22;20028;-81
2023/09/04 01:14:26;;;;;;;0.50;0.50;;;;;;;11.53;100.00;99652.59;6221756;22;20031;-81
2023/09/04 01:16:55;;;;;;;0.50;0.50;;;;;;;11.52;100.00;99645.53;6246684;22;20039;-82
2023/09/04 01:19:25;;;;;;;0.50;0.50;;;;;;;11.62;100.00;99660.13;6273006;22;20034;-81
2023/09/04 01:21:52;;;;;;;0.50;0.50;;;;;;;11.70;100.00;99656.25;6273193;22;20024;-81
2023/09/04 01:24:19;;;;;;;0.50;0.50;;;;;;;11.63;100.00;99650.13;6273176;22;20027;-81
2023/09/04 01:27:03;;;;;;;0.50;0.50;;;;;;;11.55;100.00;99647.78;6274264;22;20047;-80
2023/09/04 01:29:36;;;;;;;0.50;0.50;;;;;;;11.48;100.00;99650.59;6248530;22;20363;-81
2023/09/04 01:32:10;;;;;;;0.50;0.50;;;;;;;11.41;100.00;99647.19;6222969;22;20024;-81
2023/09/04 01:34:45;;;;;;;0.50;0.50;;;;;;;11.37;100.00;99651.38;6222842;22;20020;-80
2023/09/04 01:37:13;;;;;;;0.50;0.50;;;;;;;11.36;100.00;99663.28;6249037;22;20019;-81
2023/09/04 01:39:40;;;;;;;0.50;0.50;;;;;;;11.34;100.00;99659.97;6274661;22;20058;-81
2023/09/04 01:42:08;;;;;;;0.40;0.40;;;;;;;11.30;100.00;99654.22;6247937;22;20027;-81
2023/09/04 01:44:36;;;;;;;0.50;0.50;;;;;;;11.28;100.00;99646.34;6247500;22;20028;-81
2023/09/04 01:47:04;;;;;;;0.40;0.40;;;;;;;11.22;100.00;99662.69;6247655;22;20039;-80
2023/09/04 01:49:31;;;;;;;0.50;0.50;;;;;;;11.20;100.00;99662.91;6247546;22;20068;-81
2023/09/04 01:52:00;;;;;;;0.50;0.50;;;;;;;11.11;100.00;99656.19;6247634;22;20023;-81
2023/09/04 01:54:27;;;;;;;0.50;0.50;;;;;;;11.07;100.00;99661.22;6274098;22;20034;-81
2023/09/04 01:56:57;;;;;;;0.50;0.50;;;;;;;11.00;100.00;99665.91;6222202;22;20370;-81
2023/09/04 01:59:25;;;;;;;0.50;0.50;;;;;;;10.91;100.00;99671.88;6247635;22;20069;-80
2023/09/04 02:01:55;;;;;;;0.50;0.50;;;;;;;10.86;100.00;99669.84;6247577;22;20528;-81
2023/09/04 02:04:25;;;;;;;0.50;0.50;;;;;;;10.82;100.00;99672.19;6247094;22;20451;-80
2023/09/04 02:06:52;;;;;;;0.40;0.40;;;;;;;10.87;100.00;99674.22;6247201;22;20023;-81
2023/09/04 02:09:23;;;;;;;0.50;0.50;;;;;;;10.89;100.00;99673.97;6247928;22;20103;-80
2023/09/04 02:11:50;;;;;;;0.45;0.45;;;;;;;10.88;100.00;99680.44;6247449;22;20028;-81
2023/09/04 02:14:17;;;;;;;0.50;0.50;;;;;;;10.87;100.00;99686.91;6273848;22;20410;-81
2023/09/04 02:16:47;;;;;;;0.60;0.60;;;;;;;10.80;100.00;99690.50;6247437;22;20026;-81
2023/09/04 02:19:15;;;;;;;0.50;0.50;;;;;;;10.72;100.00;99684.59;6274356;22;20094;-81
2023/09/04 02:22:08;;;;;;;0.57;0.57;;;;;;;10.68;100.00;99686.94;6251624;22;20020;-81
2023/09/04 02:24:35;;;;;;;0.50;0.50;;;;;;;10.68;100.00;99686.09;6274127;22;20046;-81
2023/09/04 02:27:03;;;;;;;0.50;0.50;;;;;;;10.66;100.00;99691.75;6274576;22;20419;-81
2023/09/04 02:29:30;;;;;;;0.50;0.50;;;;;;;10.69;100.00;99699.38;6247364;22;20023;-80
2023/09/04 02:31:57;;;;;;;0.60;0.60;;;;;;;10.67;100.00;99693.38;6247220;22;20031;-81
2023/09/04 02:34:25;;;;;;;0.50;0.50;;;;;;;10.63;100.00;99713.78;6274212;22;20024;-80
2023/09/04 02:36:52;;;;;;;0.50;0.50;;;;;;;10.60;100.00;99715.06;6220117;22;20537;-81
2023/09/04 02:39:22;;;;;;;0.60;0.60;;;;;;;10.63;100.00;99708.38;6246807;22;20066;-81
2023/09/04 02:41:50;;;;;;;0.50;0.50;;;;;;;10.59;100.00;99710.72;6274342;22;20019;-81
2023/09/04 02:44:17;;;;;;;0.50;0.50;;;;;;;10.60;100.00;99708.84;6274234;22;20035;-81
2023/09/04 02:46:47;;;;;;;0.50;0.50;;;;;;;10.58;100.00;99709.09;6248370;22;20031;-81
2023/09/04 02:49:17;;;;;;;0.50;0.50;;;;;;;10.56;100.00;99703.09;6274080;22;20031;-81
2023/09/04 02:51:44;;;;;;;0.55;0.55;;;;;;;10.59;100.00;99701.81;6247075;22;20019;-81
2023/09/04 02:54:12;;;;;;;0.60;0.60;;;;;;;10.66;100.00;99707.94;6273831;22;20047;-81
2023/09/04 02:56:39;;;;;;;0.50;0.50;;;;;;;10.66;100.00;99701.69;6273563;22;20024;-81
2023/09/04 02:59:06;;;;;;;0.50;0.50;;;;;;;10.74;100.00;99702.22;6247458;22;20051;-80
2023/09/04 03:01:36;;;;;;;0.50;0.50;;;;;;;10.78;100.00;99706.09;6273455;22;20047;-81
2023/09/04 03:04:03;;;;;;;0.50;0.50;;;;;;;10.87;100.00;99711.19;6171551;22;20362;-81
2023/09/04 03:06:30;;;;;;;0.50;0.50;;;;;;;10.96;100.00;99718.75;6273654;22;20023;-81
2023/09/04 03:08:57;;;;;;;0.60;0.60;;;;;;;11.03;100.00;99710.53;6246843;22;20360;-80
2023/09/04 03:11:24;;;;;;;0.52;0.52;;;;;;;10.92;100.00;99716.75;6221835;22;20023;-81
2023/09/04 03:13:54;;;;;;;0.60;0.60;;;;;;;10.88;100.00;99726.34;6246784;22;20019;-81
2023/09/04 03:16:22;;;;;;;0.50;0.50;;;;;;;10.88;100.00;99729.03;6220916;22;20091;-81
2023/09/04 03:18:52;;;;;;;0.60;0.60;;;;;;;10.95;100.00;99735.19;6223532;22;20019;-80
2023/09/04 03:21:19;;;;;;;0.55;0.55;;;;;;;11.05;100.00;99730.03;6246406;22;20340;-81
2023/09/04 03:23:47;;;;;;;0.60;0.60;;;;;;;11.13;100.00;99729.72;6274105;22;20343;-81
2023/09/04 03:26:17;;;;;;;0.60;0.60;;;;;;;11.26;100.00;99734.09;6246557;22;20097;-81
2023/09/04 03:28:45;;;;;;;0.47;0.47;;;;;;;11.35;100.00;99738.13;6246615;22;20047;-82
2023/09/04 03:31:15;;;;;;;0.50;0.50;;;;;;;11.41;100.00;99730.97;6246621;22;20024;-81
2023/09/04 03:33:44;;;;;;;0.55;0.55;;;;;;;11.48;100.00;99747.91;6246714;22;20024;-81
2023/09/04 03:36:15;;;;;;;0.50;0.50;;;;;;;11.46;100.00;99744.59;6246480;22;20027;-81
2023/09/04 03:38:43;;;;;;;0.55;0.55;;;;;;;11.43;100.00;99734.25;6246544;22;20016;-81
2023/09/04 03:41:12;;;;;;;0.50;0.50;;;;;;;11.47;100.00;99740.84;6273803;22;20019;-81
2023/09/04 03:43:40;;;;;;;0.50;0.50;;;;;;;11.46;100.00;99744.59;6245948;22;20050;-81
2023/09/04 03:46:11;;;;;;;0.50;0.50;;;;;;;11.45;100.00;99732.97;6246343;22;20028;-82
2023/09/04 03:48:39;;;;;;;0.60;0.60;;;;;;;11.57;100.00;99738.41;6272966;22;20031;-81
2023/09/04 03:51:06;;;;;;;0.50;0.50;;;;;;;11.61;100.00;99730.63;6246192;22;20023;-82
2023/09/04 03:53:33;;;;;;;0.50;0.50;;;;;;;11.65;100.00;99732.66;6273178;22;20524;-82
2023/09/04 03:56:04;;;;;;;0.50;0.50;;;;;;;11.71;100.00;99733.59;6246414;22;20106;-81
2023/09/04 03:58:32;;;;;;;0.50;0.50;;;;;;;11.75;100.00;99736.63;6221325;22;20047;-81
2023/09/04 04:00:59;;;;;;;0.50;0.50;;;;;;;11.78;100.00;99742.41;6245361;22;20085;-81
2023/09/04 04:03:28;;;;;;;0.50;0.50;;;;;;;11.88;100.00;99750.78;6245018;22;20466;-82
2023/09/04 04:05:55;;;;;;;0.50;0.50;;;;;;;11.99;100.00;99745.63;6253242;22;20019;-83
2023/09/04 04:08:25;;;;;;;0.50;0.50;;;;;;;12.06;100.00;99749.03;6222938;22;20030;-82
2023/09/04 04:10:57;;;;;;;0.52;0.52;;;;;;;12.10;100.00;99744.78;6245841;22;20023;-82
2023/09/04 04:13:24;;;;;;;0.60;0.60;;;;;;;12.23;100.00;99760.78;6272529;22;20023;-81
2023/09/04 04:15:56;;;;;;;0.50;0.50;;;;;;;12.33;100.00;99757.47;6272220;22;20092;-81
2023/09/04 04:18:27;;;;;;;0.50;0.50;;;;;;;12.41;100.00;99756.31;6245697;22;20447;-82
2023/09/04 04:20:55;;;;;;;0.50;0.50;;;;;;;12.51;100.00;99751.09;6246130;22;20020;-82
2023/09/04 04:23:24;;;;;;;0.50;0.50;;;;;;;12.61;100.00;99750.47;6272218;22;20097;-81
2023/09/04 04:25:51;;;;;;;0.60;0.60;;;;;;;12.77;100.00;99760.56;6271440;22;20039;-80
2023/09/04 04:28:21;;;;;;;0.52;0.52;;;;;;;12.94;99.66;99761.44;6244608;22;20030;-81
2023/09/04 04:30:49;;;;;;;0.50;0.50;;;;;;;13.11;99.30;99766.06;6272103;22;20408;-81
2023/09/04 04:33:23;;;;;;;0.50;0.50;;;;;;;13.20;98.74;99760.03;6245825;22;20020;-80
2023/09/04 04:35:54;;;;;;;0.60;0.60;;;;;;;13.33;98.38;99756.22;6221784;22;20024;-81
2023/09/04 04:38:22;;;;;;;0.50;0.50;;;;;;;13.52;98.09;99755.97;6253297;22;20024;-81
2023/09/04 04:40:50;;;;;;;0.50;0.50;;;;;;;13.67;97.34;99769.78;6277955;22;20450;-82
2023/09/04 04:43:21;;;;;;;0.50;0.50;;;;;;;13.74;96.68;99756.91;6245835;22;20028;-82
2023/09/04 04:45:48;;;;;;;0.45;0.45;;;;;;;13.92;96.25;99763.94;6245653;22;20118;-81
2023/09/04 04:48:16;;;;;;;0.50;0.50;;;;;;;13.96;95.51;99753.44;6245156;22;20016;-81
2023/09/04 04:50:44;;;;;;;0.50;0.50;;;;;;;14.08;94.44;99748.75;6243257;22;20051;-81
2023/09/04 04:53:11;;;;;;;0.50;0.50;;;;;;;14.31;93.44;99764.81;6244021;22;20020;-80
2023/09/04 04:55:39;;;;;;;0.52;0.52;;;;;;;14.46;92.73;99772.34;6271473;22;20019;-82
2023/09/04 04:58:06;;;;;;;0.52;0.52;;;;;;;14.58;92.12;99769.53;6270167;22;20498;-80
2023/09/04 05:00:34;;;;;;;0.50;0.50;;;;;;;14.73;91.52;99761.56;6245753;22;20031;-80
2023/09/04 05:03:02;;;;;;;0.40;0.40;;;;;;;14.92;90.53;99753.09;6247003;22;20023;-80
2023/09/04 05:05:32;;;;;;;0.50;0.50;;;;;;;15.03;89.38;99748.59;6273712;22;20074;-81
2023/09/04 05:08:02;;;;;;;0.50;0.50;;;;;;;15.20;87.83;99765.63;6247254;22;20463;-81
2023/09/04 05:10:29;;;;;;;0.50;0.50;;;;;;;15.35;86.16;99754.09;6246401;22;20024;-81
2023/09/04 05:12:57;;;;;;;0.50;0.50;;;;;;;15.45;84.27;99751.47;6246603;22;20035;-81
2023/09/04 05:15:25;;;;;;;0.50;0.50;;;;;;;15.52;83.35;99759.38;6273912;22;20027;-81
2023/09/04 05:17:52;;;;;;;0.40;0.40;;;;;;;15.55;83.29;99748.81;6246983;22;20019;-81
2023/09/04 05:20:22;;;;;;;0.50;0.50;;;;;;;15.77;83.83;99750.66;6273245;22;20035;-81
2023/09/04 05:22:52;;;;;;;0.50;0.50;;;;;;;15.93;84.03;99741.53;6247052;22;20455;-81
2023/09/04 05:25:20;;;;;;;0.50;0.50;;;;;;;16.08;83.16;99748.13;6247050;22;20024;-81
2023/09/04 05:27:51;;;;;;;0.40;0.40;;;;;;;16.04;80.52;99739.69;6274294;22;20095;-81
2023/09/04 05:30:18;;;;;;;0.50;0.50;;;;;;;16.01;79.58;99740.22;6248860;22;20111;-80
2023/09/04 05:32:46;;;;;;;0.50;0.50;;;;;;;16.11;78.25;99747.63;6246884;22;20470;-80
2023/09/04 05:35:16;;;;;;;0.50;0.50;;;;;;;16.07;77.82;99733.72;6274362;22;20024;-81
2023/09/04 05:37:45;;;;;;;0.40;0.40;;;;;;;16.32;77.27;99754.81;6221838;22;20475;-81
2023/09/04 05:40:14;;;;;;;0.50;0.50;;;;;;;16.45;76.82;99748.06;6274525;22;20405;-80
2023/09/04 05:42:41;;;;;;;0.50;0.50;;;;;;;16.57;76.87;99745.97;6273843;22;20020;-80
2023/09/04 05:45:11;;;;;;;0.50;0.50;;;;;;;16.67;76.08;99745.19;6274628;22;20031;-79
2023/09/04 05:47:40;;;;;;;0.45;0.45;;;;;;;16.58;74.72;99725.78;6273965;22;20082;-80
2023/09/04 05:50:33;;;;;;;0.50;0.50;;;;;;;16.73;74.57;99749.56;6274179;22;20336;-80
2023/09/04 05:53:02;;;;;;;0.50;0.50;;;;;;;16.72;74.32;99747.94;6246858;22;20506;-80
2023/09/04 05:55:30;;;;;;;0.50;0.50;;;;;;;16.82;74.21;99742.53;6274249;22;20028;-81
2023/09/04 05:57:57;;;;;;;0.50;0.50;;;;;;;16.96;73.71;99744.75;6274465;22;20019;-80
2023/09/04 06:00:31;;;;;;;0.50;0.50;;;;;;;17.04;73.07;99733.31;6247455;22;20102;-81
2023/09/04 06:03:03;;;;;;;0.47;0.47;;;;;;;17.10;72.59;99729.53;6246904;22;20023;-81
2023/09/04 06:05:32;;;;;;;0.45;0.45;;;;;;;17.27;72.25;99746.47;6247296;22;20023;-81
2023/09/04 06:08:02;;;;;;;0.50;0.50;;;;;;;17.44;72.22;99737.19;6273942;22;20028;-80
2023/09/04 06:10:31;;;;;;;0.50;0.50;;;;;;;17.57;71.55;99738.56;6273543;22;20023;-80
2023/09/04 06:13:02;;;;;;;0.50;0.50;;;;;;;17.62;71.21;99728.47;6274494;22;20107;-81
2023/09/04 06:15:29;;;;;;;0.40;0.40;;;;;;;17.66;70.40;99731.47;6273814;22;20114;-80
2023/09/04 06:17:56;;;;;;;0.40;0.40;;;;;;;17.81;70.74;99750.63;6273985;22;20039;-80
2023/09/04 06:20:25;;;;;;;0.40;0.40;;;;;;;17.85;70.42;99746.25;6274038;22;20020;-81
2023/09/04 06:22:52;;;;;;;0.40;0.40;;;;;;;17.95;68.86;99753.59;6273612;22;20134;-80
2023/09/04 06:25:26;;;;;;;0.50;0.50;;;;;;;18.06;68.26;99749.78;6246704;22;20027;-80
2023/09/04 06:27:54;;;;;;;0.50;0.50;;;;;;;18.16;68.09;99751.66;6273781;22;20023;-80
2023/09/04 06:30:21;;;;;;;0.40;0.40;;;;;;;18.31;67.59;99753.56;6273735;22;20030;-81
2023/09/04 06:32:49;;;;;;;0.50;0.50;;;;;;;18.44;67.45;99747.50;6273582;22;20110;-79
2023/09/04 06:35:16;;;;;;;0.40;0.40;;;;;;;18.60;65.86;99760.00;6246404;22;20332;-80
2023/09/04 06:37:44;;;;;;;0.40;0.40;;;;;;;18.67;65.13;99769.81;6246991;22;20517;-80
2023/09/04 06:40:11;;;;;;;0.50;0.50;;;;;;;18.72;64.75;99773.34;6273777;22;20421;-81
2023/09/04 06:42:39;;;;;;;0.38;0.38;;;;;;;18.68;64.83;99772.25;6246257;22;20467;-80
2023/09/04 06:45:09;;;;;;;0.40;0.40;;;;;;;18.72;64.82;99773.34;6273696;22;20570;-81
2023/09/04 06:47:38;;;;;;;0.40;0.40;;;;;;;18.78;64.60;99776.91;6246426;22;20024;-80
2023/09/04 06:50:06;;;;;;;0.40;0.40;;;;;;;18.84;63.96;99778.53;6273525;22;20030;-80
2023/09/04 06:52:35;;;;;;;0.50;0.50;;;;;;;18.78;63.47;99764.03;6273465;22;20706;-80
2023/09/04 06:55:11;;;;;;;0.50;0.50;;;;;;;19.04;62.77;99774.84;6273471;22;20023;-80
2023/09/04 06:57:38;;;;;;;0.50;0.50;;;;;;;19.12;61.32;99770.75;6273186;22;20054;-81
2023/09/04 07:00:09;;;;;;;0.50;0.50;;;;;;;19.32;60.74;99770.63;6273176;22;20095;-81
2023/09/04 07:02:37;;;;;;;0.50;0.50;;;;;;;19.60;59.82;99770.97;6273029;22;20371;-80
2023/09/04 07:05:07;;;;;;;0.50;0.50;;;;;;;19.76;58.98;99764.28;6273540;22;20023;-82
2023/09/04 07:07:37;;;;;;;0.50;0.50;;;;;;;19.87;58.29;99773.22;6272920;22;20023;-82
2023/09/04 07:10:18;;;;;;;0.43;0.43;;;;;;;19.68;57.70;99771.19;6274053;22;20098;-81
2023/09/04 07:12:50;;;;;;;0.50;0.50;;;;;;;19.85;57.32;99773.53;6272717;22;20362;-81
2023/09/04 07:15:20;;;;;;;0.50;0.50;;;;;;;19.79;57.34;99782.06;6273336;22;20363;-81
2023/09/04 07:17:50;;;;;;;0.50;0.50;;;;;;;19.89;57.24;99784.72;6273719;22;20405;-80
2023/09/04 07:20:17;;;;;;;0.50;0.50;;;;;;;20.25;55.98;99781.63;6272960;22;20332;-81
2023/09/04 07:22:44;;;;;;;0.50;0.50;;;;;;;20.39;55.06;99784.53;6271926;22;20069;-81
2023/09/04 07:25:12;;;;;;;0.50;0.50;;;;;;;20.26;55.16;99777.81;6246497;22;20031;-81
2023/09/04 07:27:42;;;;;;;0.47;0.47;;;;;;;20.47;54.60;99790.16;6273157;22;20030;-81
2023/09/04 07:30:10;;;;;;;0.47;0.47;;;;;;;20.56;54.44;99780.25;6273391;22;20058;-81
2023/09/04 07:32:37;;;;;;;0.40;0.40;;;;;;;20.59;54.78;99776.09;6246408;22;20035;-79
2023/09/04 07:35:07;;;;;;;0.45;0.45;;;;;;;20.73;54.92;99784.41;6247267;22;20023;-81
2023/09/04 07:37:41;;;;;;;0.40;0.40;;;;;;;20.91;54.26;99783.63;6276028;22;20046;-81
2023/09/04 07:40:10;;;;;;;0.40;0.40;;;;;;;20.84;54.75;99771.38;6246574;22;20027;-82
2023/09/04 07:42:42;;;;;;;0.40;0.40;;;;;;;21.14;53.63;99792.13;6272658;22;20077;-81
2023/09/04 07:45:17;;;;;;;0.40;0.40;;;;;;;21.34;53.14;99791.81;6273118;22;20034;-81
2023/09/04 07:47:44;;;;;;;0.40;0.40;;;;;;;21.38;52.98;99792.06;6247508;22;20122;-81
2023/09/04 07:50:11;;;;;;;0.40;0.40;;;;;;;21.39;52.99;99794.53;6273070;22;20098;-79
2023/09/04 07:52:39;;;;;;;0.50;0.50;;;;;;;21.43;52.61;99794.75;6272854;22;20054;-80
2023/09/04 07:55:08;;;;;;;0.40;0.40;;;;;;;21.47;52.81;99803.22;6273027;22;20423;-81
2023/09/04 07:57:36;;;;;;;0.40;0.40;;;;;;;21.46;52.02;99793.34;6272626;22;20041;-81
2023/09/04 08:00:05;;;;;;;0.40;0.40;;;;;;;21.50;50.61;99800.72;6272650;22;20355;-81
2023/09/04 08:02:39;;;;;;;0.40;0.40;;;;;;;21.36;50.80;99797.84;6272485;22;20028;-81
2023/09/04 08:05:11;;;;;;;0.45;0.45;;;;;;;21.17;51.46;99795.09;6246255;22;20020;-81
2023/09/04 08:07:39;;;;;;;0.40;0.40;;;;;;;21.30;51.50;99795.50;6270954;22;20526;-81
2023/09/04 08:10:07;;;;;;;0.50;0.50;;;;;;;21.39;50.88;99788.22;6248826;22;20024;-79
2023/09/04 08:12:34;;;;;;;0.50;0.50;;;;;;;21.55;49.94;99803.38;6273840;22;20023;-81
2023/09/04 08:15:01;;;;;;;0.50;0.50;;;;;;;21.61;49.73;99796.69;6272374;22;20030;-80
2023/09/04 08:17:30;;;;;;;0.40;0.40;;;;;;;21.88;49.36;99797.91;6272226;22;20031;-80
2023/09/04 08:19:58;;;;;;;0.50;0.50;;;;;;;22.27;48.84;99800.25;6271475;22;20027;-82
2023/09/04 08:22:25;;;;;;;0.40;0.40;;;;;;;22.48;48.52;99795.22;6272221;22;20024;-81
2023/09/04 08:24:55;;;;;;;0.40;0.40;;;;;;;22.68;48.37;99799.47;6273014;22;20103;-81
2023/09/04 08:27:25;;;;;;;0.43;0.43;;;;;;;22.67;48.46;99797.03;6272878;22;20069;-80
2023/09/04 08:29:52;;;;;;;0.40;0.40;;;;;;;22.36;49.15;99797.66;6271777;22;20095;-82
2023/09/04 08:32:20;;;;;;;0.50;0.50;;;;;;;22.48;49.20;99797.97;6272519;22;20114;-81
2023/09/04 08:34:47;;;;;;;0.40;0.40;;;;;;;22.93;49.07;99800.09;6272674;22;20069;-82
2023/09/04 08:37:14;;;;;;;0.43;0.43;;;;;;;23.21;46.93;99806.38;6275110;22;20024;-82
2023/09/04 08:39:42;;;;;;;0.40;0.40;;;;;;;23.31;46.50;99802.59;6274173;22;20058;-81
2023/09/04 08:42:10;;;;;;;0.40;0.40;;;;;;;23.40;45.20;99792.47;6247811;22;20030;-81
2023/09/04 08:45:02;;;;;;;0.50;0.50;;;;;;;23.72;45.30;99802.47;6253507;22;20083;-82
2023/09/04 08:47:31;;;;;;;0.40;0.40;;;;;;;23.93;44.60;99813.84;6223246;22;20015;-81
2023/09/04 08:50:05;;;;;;;0.50;0.50;;;;;;;23.93;43.88;99804.75;6248481;22;20023;-81
2023/09/04 08:52:33;;;;;;;0.50;0.50;;;;;;;24.17;43.49;99804.41;6274884;22;20024;-81
2023/09/04 08:55:01;;;;;;;0.40;0.40;;;;;;;24.18;42.86;99804.09;6275018;22;20487;-81
2023/09/04 08:57:30;;;;;;;0.40;0.40;;;;;;;24.68;42.99;99796.72;6274496;22;20028;-81
2023/09/04 08:59:57;;;;;;;0.40;0.40;;;;;;;25.23;41.73;99793.47;6274864;22;20030;-81
2023/09/04 09:02:24;;;;;;;0.40;0.40;;;;;;;25.52;41.23;99799.19;6274163;22;20030;-81
2023/09/04 09:04:52;;;;;;;0.40;0.40;;;;;;;25.69;41.44;99803.06;6274409;22;20019;-82
2023/09/04 09:07:23;;;;;;;0.40;0.40;;;;;;;26.00;39.80;99805.66;6274448;22;20054;-81
2023/09/04 09:09:51;;;;;;;0.40;0.40;;;;;;;25.52;39.96;99801.94;6247926;22;20032;-82
2023/09/04 09:12:18;;;;;;;0.40;0.40;;;;;;;25.30;40.69;99804.84;6247117;22;20102;-80
2023/09/04 09:14:45;;;;;;;0.40;0.40;;;;;;;25.21;40.48;99792.97;6247009;22;20024;-83
2023/09/04 09:17:14;;;;;;;0.40;0.40;;;;;;;25.27;40.63;99799.97;6273705;22;20047;-81
2023/09/04 09:19:42;;;;;;;0.40;0.40;;;;;;;25.29;39.74;99806.81;6274421;22;20674;-80
2023/09/04 09:22:17;;;;;;;0.40;0.40;;;;;;;24.58;40.96;99803.31;6274097;22;20027;-81
2023/09/04 09:24:52;;;;;;;0.40;0.40;;;;;;;24.47;41.56;99811.09;6274352;22;20019;-81
2023/09/04 09:27:25;;;;;;;0.40;0.40;;;;;;;24.78;41.15;99815.75;6274243;22;20074;-82
2023/09/04 09:29:57;;;;;;;0.40;0.40;;;;;;;24.51;41.43;99803.81;6274285;22;20024;-81
2023/09/04 09:32:30;;;;;;;0.40;0.40;;;;;;;24.50;41.94;99804.91;6246713;22;20020;-81
2023/09/04 09:34:59;;;;;;;0.40;0.40;;;;;;;24.92;40.79;99799.06;6246454;22;20023;-80
2023/09/04 09:37:31;;;;;;;0.40;0.40;;;;;;;25.08;41.06;99803.00;6273890;22;20027;-81
2023/09/04 09:39:59;;;;;;;0.40;0.40;;;;;;;25.20;41.44;99802.41;6247572;22;20027;-81
2023/09/04 09:42:31;;;;;;;0.40;0.40;;;;;;;25.12;41.47;99795.69;6273396;22;20589;-81
2023/09/04 09:45:00;;;;;;;0.40;0.40;;;;;;;25.38;41.05;99804.03;6274097;22;20032;-81
2023/09/04 09:47:32;;;;;;;0.40;0.40;;;;;;;25.10;41.20;99800.72;6274065;22;20054;-81
2023/09/04 09:50:00;;;;;;;0.43;0.43;;;;;;;25.37;40.57;99813.47;6273861;22;20473;-83
2023/09/04 09:52:30;;;;;;;0.50;0.50;;;;;;;25.25;40.79;99803.06;6273870;22;20027;-82
2023/09/04 09:55:00;;;;;;;0.40;0.40;;;;;;;25.40;40.25;99807.31;6246426;22;20359;-81
2023/09/04 09:57:32;;;;;;;0.40;0.40;;;;;;;25.80;39.83;99804.38;6273354;22;20074;-81
2023/09/04 10:00:00;;;;;;;0.40;0.40;;;;;;;25.74;40.15;99800.94;6274722;22;20081;-83
2023/09/04 10:02:31;;;;;;;0.40;0.40;;;;;;;25.65;40.26;99804.84;6247139;22;20058;-82
2023/09/04 10:05:00;;;;;;;0.40;0.40;;;;;;;25.46;40.64;99814.28;6270986;22;20020;-83
2023/09/04 10:07:30;;;;;;;0.40;0.40;;;;;;;25.54;39.84;99809.09;6272383;22;20047;-82
2023/09/04 10:10:03;;;;;;;0.40;0.40;;;;;;;25.68;38.90;99815.28;6247152;22;20031;-81
2023/09/04 10:12:50;;;;;;;0.40;0.40;;;;;;;25.41;39.03;99822.72;6273065;22;20020;-82
2023/09/04 10:15:27;;;;;;;0.40;0.40;;;;;;;25.52;38.52;99807.47;6248031;22;20383;-79
2023/09/04 10:18:05;;;;;;;0.40;0.40;;;;;;;25.57;38.06;99811.19;6272189;22;20027;-82
2023/09/04 10:20:36;;;;;;;0.40;0.40;;;;;;;25.23;38.20;99812.81;6247018;22;20101;-82
2023/09/04 10:23:09;;;;;;;0.30;0.30;;;;;;;24.43;39.48;99816.41;6272770;22;20401;-81
2023/09/04 10:25:57;;;;;;;0.30;0.30;;;;;;;24.14;40.89;99822.41;6273428;22;20019;-81
2023/09/04 10:28:36;;;;;;;0.50;0.50;;;;;;;25.15;39.35;99821.88;6274445;22;20418;-81
2023/09/04 10:31:11;;;;;;;0.40;0.40;;;;;;;26.13;38.38;99812.97;6246902;22;20024;-81
2023/09/04 10:33:39;;;;;;;0.40;0.40;;;;;;;26.29;38.23;99813.25;6247266;22;20366;-81
2023/09/04 10:36:08;;;;;;;0.40;0.40;;;;;;;26.41;38.18;99808.97;6273638;22;20390;-82
2023/09/04 10:38:36;;;;;;;0.40;0.40;;;;;;;26.28;37.52;99808.03;6245583;22;20523;-82
2023/09/04 10:41:06;;;;;;;0.40;0.40;;;;;;;26.36;37.80;99813.56;6247568;22;20046;-81
2023/09/04 10:43:40;;;;;;;0.30;0.30;;;;;;;25.84;38.77;99810.03;6247113;22;20085;-82
2023/09/04 10:46:33;;;;;;;0.30;0.30;;;;;;;25.89;38.79;99812.69;6274017;22;20019;-83
2023/09/04 10:49:00;;;;;;;0.30;0.30;;;;;;;25.74;39.20;99819.47;6209298;23;20476;-82
2023/09/04 10:51:37;;;;;;;0.40;0.40;;;;;;;25.48;39.69;99813.97;6208847;23;20021;-83
2023/09/04 10:54:16;;;;;;;0.30;0.30;;;;;;;25.30;39.66;99815.91;6209171;23;20099;-83
2023/09/04 10:57:11;;;;;;;0.40;0.40;;;;;;;25.30;39.86;99813.16;6182032;23;20020;-81
2023/09/04 10:59:54;;;;;;;0.40;0.40;;;;;;;25.43;40.24;99825.19;6208540;23;20025;-82
2023/09/04 11:02:32;;;;;;;0.40;0.40;;;;;;;25.66;40.30;99812.81;6207321;23;20096;-83
2023/09/04 11:05:01;;;;;;;0.30;0.30;;;;;;;25.68;39.86;99818.03;6208419;23;20063;-82
2023/09/04 11:07:35;;;;;;;0.40;0.40;;;;;;;25.86;37.53;99816.91;6185273;23;20032;-82
2023/09/04 11:10:10;;;;;;;0.40;0.40;;;;;;;26.62;36.51;99814.63;6186017;23;20016;-83
2023/09/04 11:12:38;;;;;;;0.40;0.40;;;;;;;27.48;34.93;99809.75;6191210;23;20024;-84
2023/09/04 11:15:15;;;;;;;0.40;0.40;;;;;;;27.80;34.68;99811.75;6192230;23;20047;-82
2023/09/04 11:17:46;;;;;;;0.20;0.20;;;;;;;27.32;35.11;99821.44;6209415;23;20029;-84
2023/09/04 11:20:14;;;;;;;0.20;0.20;;;;;;;26.36;36.67;99813.56;6210133;23;20031;-83
2023/09/04 11:22:49;;;;;;;0.20;0.20;;;;;;;25.80;38.17;99812.66;6160421;23;20024;-83
2023/09/04 11:25:21;;;;;;;0.20;0.20;;;;;;;25.34;39.19;99819.63;6221677;22;20020;-84
2023/09/04 11:27:49;;;;;;;0.20;0.20;;;;;;;24.81;40.23;99809.56;6273382;22;20043;-83
2023/09/04 11:30:16;;;;;;;0.20;0.20;;;;;;;24.29;41.09;99809.34;6273834;22;20020;-82
2023/09/04 11:32:44;;;;;;;0.30;0.30;;;;;;;23.88;42.09;99815.91;6246678;22;20350;-82
2023/09/04 11:35:13;;;;;;;0.50;0.50;;;;;;;24.52;40.88;99810.13;6272143;22;20026;-83
2023/09/04 11:37:44;;;;;;;0.60;0.60;;;;;;;26.31;37.82;99819.25;6270585;22;20031;-82
2023/09/04 11:40:16;;;;;;;0.30;0.30;;;;;;;27.21;36.07;99815.44;6245689;22;20027;-82
2023/09/04 11:42:48;;;;;;;0.60;0.60;;;;;;;28.20;34.73;99815.94;6273092;22;20026;-83